^^
Station Historical Data
Daily Summary for June 14, 2018 Units:  English    Metric   Both
« Previous Day
Next Day »
Daily Weekly Monthly Yearly Custom
  High: Low: Average:
Temperature: TemperatureF °F 64.6 °F 72.8 °F
Dew Point: DewpointF °F 62.4 °F 66.4 °F
Humidity: Humidity% 42% 83%
Wind Speed: WindSpeedMPHmph 0.0mph 0.6mph
Wind Gust: WindSpeedGustMPHmph - -
Wind- - SSW
Pressure: PressureIn in 30.29 in -
Precipitation: 0.00 in    
Historical Graphs
 
 
Tabular Data for June 14, 2018
Time Temperature Dew Point Pressure Wind Wind Speed Wind Gust Humidity Rainfall Rate (Hourly)
TemperatureF °F DewpointF °F PressureIn in Calm     Humidity% HourlyPrecipIn in
00:00 68.2 °F 67.6 °F 30.40 in Calm     98% 0.00 in
00:05 68.0 °F 67.5 °F 30.40 in Calm     98% 0.00 in
00:10 67.8 °F 67.3 °F 30.40 in Calm     98% 0.00 in
00:15 67.6 °F 67.1 °F 30.41 in Calm     98% 0.00 in
00:20 67.6 °F 67.1 °F 30.40 in Calm     98% 0.00 in
00:25 67.5 °F 66.9 °F 30.40 in Calm     98% 0.00 in
00:30 67.5 °F 66.9 °F 30.40 in Calm     98% 0.00 in
00:35 67.3 °F 66.7 °F 30.40 in Calm     98% 0.00 in
00:41 67.3 °F 66.7 °F 30.41 in Calm     98% 0.00 in
00:46 66.9 °F 66.4 °F 30.41 in Calm     98% 0.00 in
00:56 66.7 °F 66.2 °F 30.41 in Calm     98% 0.00 in
01:06 66.4 °F 65.8 °F 30.41 in Calm     98% 0.00 in
01:16 66.0 °F 65.7 °F 30.41 in Calm     99% 0.00 in
01:21 66.0 °F 65.7 °F 30.42 in Calm     99% 0.00 in
01:36 65.8 °F 65.5 °F 30.41 in Calm     99% 0.00 in
01:41 65.8 °F 65.5 °F 30.41 in Calm     99% 0.00 in
01:46 65.8 °F 65.5 °F 30.41 in Calm     99% 0.00 in
01:51 65.7 °F 65.3 °F 30.41 in Calm     99% 0.00 in
01:56 65.7 °F 65.3 °F 30.41 in Calm     99% 0.00 in
02:01 65.5 °F 65.1 °F 30.41 in Calm   1.0 mph 99% 0.00 in
02:06 65.5 °F 65.1 °F 30.41 in Calm     99% 0.00 in
02:11 65.5 °F 65.1 °F 30.40 in Calm   1.0 mph 99% 0.00 in
02:21 65.7 °F 65.3 °F 30.40 in Calm     99% 0.00 in
02:26 65.7 °F 65.3 °F 30.40 in Calm     99% 0.00 in
02:31 65.7 °F 65.3 °F 30.41 in Calm     99% 0.00 in
02:36 65.5 °F 65.1 °F 30.41 in Calm     99% 0.00 in
02:41 65.5 °F 65.1 °F 30.41 in Calm     99% 0.00 in
02:46 65.5 °F 65.1 °F 30.41 in Calm     99% 0.00 in
02:51 65.5 °F 65.1 °F 30.40 in Calm     99% 0.00 in
02:56 65.5 °F 65.1 °F 30.40 in Calm     99% 0.00 in
03:01 65.3 °F 64.9 °F 30.40 in Calm     99% 0.00 in
03:06 65.1 °F 64.8 °F 30.40 in Calm     99% 0.00 in
03:11 65.1 °F 64.8 °F 30.40 in Calm     99% 0.00 in
03:22 64.9 °F 64.6 °F 30.40 in Calm     99% 0.00 in
03:27 64.9 °F 64.6 °F 30.40 in Calm     99% 0.00 in
03:37 65.1 °F 64.8 °F 30.39 in Calm     99% 0.00 in
03:42 64.9 °F 64.6 °F 30.38 in Calm     99% 0.00 in
03:52 64.9 °F 64.6 °F 30.37 in Calm     99% 0.00 in
04:02 64.9 °F 64.6 °F 30.37 in Calm     99% 0.00 in
04:07 64.9 °F 64.6 °F 30.37 in Calm     99% 0.00 in
04:12 65.1 °F 64.8 °F 30.37 in Calm     99% 0.00 in
04:17 64.9 °F 64.6 °F 30.37 in Calm     99% 0.00 in
04:32 65.1 °F 64.8 °F 30.37 in Calm     99% 0.00 in
04:42 65.1 °F 64.8 °F 30.37 in Calm     99% 0.00 in
04:52 65.1 °F 64.8 °F 30.38 in Calm     99% 0.00 in
04:58 65.1 °F 64.8 °F 30.38 in Calm     99% 0.00 in
05:03 65.1 °F 64.8 °F 30.38 in Calm     99% 0.00 in
05:08 65.3 °F 64.9 °F 30.38 in Calm     99% 0.00 in
05:13 65.1 °F 64.8 °F 30.38 in Calm     99% 0.00 in
05:18 65.1 °F 64.8 °F 30.38 in East 0.9 mph 1.0 mph 99% 0.00 in
05:33 65.1 °F 64.8 °F 30.38 in Calm     99% 0.00 in
05:43 65.5 °F 65.1 °F 30.39 in East 0.9 mph 1.0 mph 99% 0.00 in
05:48 65.3 °F 64.9 °F 30.39 in Calm     99% 0.00 in
06:03 65.5 °F 65.1 °F 30.39 in Calm     99% 0.00 in
06:08 65.5 °F 65.1 °F 30.39 in Calm     99% 0.00 in
06:13 65.5 °F 65.1 °F 30.39 in Calm     99% 0.00 in
06:23 65.5 °F 65.1 °F 30.39 in Calm     99% 0.00 in
06:33 65.5 °F 65.1 °F 30.39 in Calm     99% 0.00 in
06:38 65.5 °F 65.1 °F 30.40 in Calm     99% 0.00 in
06:48 65.3 °F 64.9 °F 30.40 in Calm     99% 0.00 in
06:53 65.3 °F 64.9 °F 30.40 in Calm     99% 0.00 in
06:58 65.1 °F 64.8 °F 30.40 in Calm     99% 0.00 in
07:03 65.1 °F 64.8 °F 30.40 in Calm     99% 0.00 in
07:39 65.5 °F 65.1 °F 30.41 in Calm   1.0 mph 99% 0.00 in
07:44 65.7 °F 65.3 °F 30.41 in Calm     99% 0.00 in
07:49 65.7 °F 65.3 °F 30.41 in Calm     99% 0.00 in
07:54 65.7 °F 65.3 °F 30.42 in Calm     99% 0.00 in
07:59 65.7 °F 65.3 °F 30.42 in Calm     99% 0.00 in
08:14 66.0 °F 65.7 °F 30.42 in Calm     99% 0.00 in
08:19 66.0 °F 65.7 °F 30.42 in West 0.9 mph 1.0 mph 99% 0.00 in
08:34 66.4 °F 66.0 °F 30.43 in Calm   1.0 mph 99% 0.00 in
08:39 66.4 °F 66.0 °F 30.43 in Calm   1.0 mph 99% 0.00 in
08:44 66.6 °F 66.2 °F 30.43 in Calm   1.0 mph 99% 0.00 in
08:55 66.9 °F 66.6 °F 30.43 in Calm     99% 0.00 in
09:00 67.1 °F 66.6 °F 30.44 in Calm     98% 0.00 in
09:10 67.5 °F 66.9 °F 30.43 in Calm   1.0 mph 98% 0.00 in
09:15 67.6 °F 66.7 °F 30.43 in Calm     97% 0.00 in
09:25 68.2 °F 66.9 °F 30.44 in West 0.9 mph 1.0 mph 96% 0.00 in
09:30 68.4 °F 67.1 °F 30.44 in WSW 2.0 mph 2.0 mph 96% 0.00 in
09:35 68.4 °F 66.9 °F 30.44 in West 0.9 mph 1.0 mph 95% 0.00 in
09:40 68.5 °F 67.1 °F 30.43 in Calm   1.0 mph 95% 0.00 in
09:50 69.4 °F 67.3 °F 30.43 in ESE 2.0 mph 2.0 mph 93% 0.00 in
09:55 69.4 °F 67.1 °F 30.43 in ESE 0.9 mph 3.0 mph 92% 0.00 in
10:00 69.4 °F 67.1 °F 30.43 in Calm     92% 0.00 in
10:05 70.0 °F 67.5 °F 30.43 in West 2.0 mph 2.0 mph 92% 0.00 in
10:10 70.2 °F 67.6 °F 30.43 in Calm   1.0 mph 92% 0.00 in
10:15 70.5 °F 67.5 °F 30.43 in Calm   1.0 mph 90% 0.00 in
10:20 71.2 °F 68.5 °F 30.43 in Calm   1.0 mph 91% 0.00 in
10:25 71.6 °F 68.5 °F 30.43 in NE 0.9 mph 1.0 mph 90% 0.00 in
10:30 72.1 °F 68.4 °F 30.43 in Calm   1.0 mph 88% 0.00 in
10:35 72.5 °F 68.4 °F 30.43 in West 2.9 mph 3.0 mph 87% 0.00 in
10:40 72.7 °F 68.9 °F 30.43 in Calm     88% 0.00 in
10:45 73.8 °F 70.3 °F 30.42 in Calm   1.0 mph 89% 0.00 in
10:50 74.1 °F 69.3 °F 30.42 in ESE 2.0 mph 3.0 mph 85% 0.00 in
10:55 74.5 °F 69.3 °F 30.42 in NE 2.9 mph 3.0 mph 84% 0.00 in
11:00 74.8 °F 69.3 °F 30.42 in ESE 2.9 mph 3.0 mph 83% 0.00 in
11:05 75.0 °F 69.1 °F 30.41 in East 0.9 mph 4.0 mph 82% 0.00 in
11:10 75.2 °F 69.3 °F 30.41 in ESE 0.9 mph 3.0 mph 82% 0.00 in
11:15 75.4 °F 69.8 °F 30.41 in SE 2.9 mph 3.0 mph 83% 0.00 in
11:25 75.9 °F 69.6 °F 30.41 in ENE 2.0 mph 3.0 mph 81% 0.00 in
11:35 77.0 °F 70.3 °F 30.40 in SE 2.0 mph 2.0 mph 80% 0.00 in
11:41 77.5 °F 70.5 °F 30.40 in East 0.9 mph 3.0 mph 79% 0.00 in
11:46 77.7 °F 69.6 °F 30.40 in ENE 0.9 mph 2.0 mph 76% 0.00 in
11:51 77.9 °F 70.2 °F 30.40 in Calm   1.0 mph 77% 0.00 in
11:56 78.3 °F 70.5 °F 30.40 in West 2.0 mph 3.0 mph 77% 0.00 in
12:01 78.6 °F 70.9 °F 30.40 in ESE 0.9 mph 3.0 mph 77% 0.00 in
12:06 78.6 °F 70.3 °F 30.40 in West 0.9 mph 3.0 mph 76% 0.00 in
12:16 78.8 °F 71.1 °F 30.40 in Calm   2.0 mph 77% 0.00 in
12:26 79.0 °F 71.1 °F 30.39 in ESE 2.0 mph 3.0 mph 77% 0.00 in
12:36 80.1 °F 71.8 °F 30.39 in SE 0.9 mph 3.0 mph 76% 0.00 in
12:41 80.1 °F 70.7 °F 30.39 in SSW 2.0 mph 3.0 mph 73% 0.00 in
12:46 80.4 °F 70.9 °F 30.39 in SE 4.0 mph 4.0 mph 73% 0.00 in
12:51 81.1 °F 71.6 °F 30.39 in Calm   2.0 mph 73% 0.00 in
12:56 81.9 °F 71.6 °F 30.38 in ESE 4.0 mph 4.0 mph 71% 0.00 in
13:06 81.3 °F 69.8 °F 30.38 in WSW 0.9 mph 3.0 mph 68% 0.00 in
13:11 81.7 °F 69.6 °F 30.38 in SE 0.9 mph 2.0 mph 67% 0.00 in
13:16 82.2 °F 71.4 °F 30.37 in West 0.9 mph 2.0 mph 70% 0.00 in
13:26 82.6 °F 70.5 °F 30.37 in WNW 2.0 mph 2.0 mph 67% 0.00 in
13:31 83.1 °F 70.5 °F 30.37 in Calm   2.0 mph 66% 0.00 in
13:36 83.7 °F 70.2 °F 30.37 in SSW 2.0 mph 3.0 mph 64% 0.00 in
13:41 84.4 °F 71.2 °F 30.37 in Calm   1.0 mph 65% 0.00 in
14:01 84.6 °F 69.1 °F 30.36 in East 2.0 mph 2.0 mph 60% 0.00 in
14:06 84.4 °F 68.9 °F 30.35 in Calm   2.0 mph 60% 0.00 in
14:11 84.4 °F 70.0 °F 30.35 in SSE 2.0 mph 4.0 mph 62% 0.00 in
14:16 84.9 °F 71.4 °F 30.35 in Calm   3.0 mph 64% 0.00 in
14:32 85.6 °F 69.6 °F 30.34 in ENE 2.0 mph 3.0 mph 59% 0.00 in
14:37 85.8 °F 70.9 °F 30.34 in WNW 2.9 mph 7.0 mph 61% 0.00 in
14:42 85.8 °F 68.9 °F 30.34 in SW 2.9 mph 6.0 mph 57% 0.00 in
14:47 85.8 °F 70.3 °F 30.33 in West 4.0 mph 5.0 mph 60% 0.00 in
14:57 86.7 °F 68.5 °F 30.33 in Calm   4.0 mph 55% 0.00 in
15:07 86.7 °F 69.1 °F 30.33 in Calm   4.0 mph 56% 0.00 in
15:12 87.3 °F 70.2 °F 30.32 in Calm   2.0 mph 57% 0.00 in
15:22 87.3 °F 70.2 °F 30.32 in SSW 0.9 mph 3.0 mph 57% 0.00 in
15:27 87.4 °F 68.2 °F 30.32 in WNW 4.0 mph 7.0 mph 53% 0.00 in
15:32 86.5 °F 67.5 °F 30.32 in SSE 2.9 mph 3.0 mph 53% 0.00 in
15:47 86.9 °F 66.0 °F 30.32 in WNW 0.9 mph 4.0 mph 50% 0.00 in
15:52 87.3 °F 68.5 °F 30.31 in West 2.9 mph 4.0 mph 54% 0.00 in
15:57 87.6 °F 67.8 °F 30.32 in WNW 2.0 mph 4.0 mph 52% 0.00 in
16:07 87.8 °F 68.5 °F 30.31 in West 0.9 mph 5.0 mph 53% 0.00 in
16:12 87.8 °F 66.9 °F 30.31 in North 4.0 mph 12.0 mph 50% 0.00 in
16:17 87.8 °F 66.9 °F 30.31 in NW 2.0 mph 7.0 mph 50% 0.00 in
16:23 88.5 °F 67.5 °F 30.31 in West 4.0 mph 6.0 mph 50% 0.00 in
16:28 88.3 °F 68.0 °F 30.31 in SW 0.9 mph 5.0 mph 51% 0.00 in
16:38 88.9 °F 67.8 °F 30.31 in NE 0.9 mph 3.0 mph 50% 0.00 in
16:43 89.1 °F 66.2 °F 30.31 in SSW 0.9 mph 7.0 mph 47% 0.00 in
16:48 89.1 °F 66.2 °F 30.31 in Calm   7.0 mph 47% 0.00 in
16:58 89.2 °F 64.4 °F 30.31 in ESE 4.0 mph 7.0 mph 44% 0.00 in
17:08 88.9 °F 64.8 °F 30.30 in ENE 0.9 mph 7.0 mph 45% 0.00 in
17:13 89.1 °F 63.0 °F 30.30 in SW 2.0 mph 5.0 mph 42% 0.00 in
17:23 88.7 °F 65.3 °F 30.30 in WSW 2.0 mph 4.0 mph 46% 0.00 in
17:33 88.2 °F 62.8 °F 30.30 in WNW 2.0 mph 4.0 mph 43% 0.00 in
17:58 88.5 °F 62.4 °F 30.29 in Calm   2.0 mph 42% 0.00 in
18:03 88.0 °F 68.7 °F 30.29 in WNW 2.0 mph 2.0 mph 53% 0.00 in
18:18 87.1 °F 63.1 °F 30.29 in Calm   2.0 mph 45% 0.00 in
18:23 87.3 °F 65.1 °F 30.29 in Calm   2.0 mph 48% 0.00 in
18:39 87.1 °F 66.2 °F 30.29 in WNW 0.9 mph 2.0 mph 50% 0.00 in
18:49 87.3 °F 65.1 °F 30.29 in West 2.0 mph 3.0 mph 48% 0.00 in
18:54 86.5 °F 66.7 °F 30.29 in Calm   2.0 mph 52% 0.00 in
18:59 86.2 °F 65.3 °F 30.29 in WNW 0.9 mph 3.0 mph 50% 0.00 in
19:04 85.3 °F 67.3 °F 30.29 in West 0.9 mph 2.0 mph 55% 0.00 in
19:09 84.6 °F 68.7 °F 30.29 in WNW 0.9 mph 1.0 mph 59% 0.00 in
19:14 84.4 °F 66.4 °F 30.30 in Calm   2.0 mph 55% 0.00 in
19:34 82.0 °F 67.3 °F 30.31 in Calm   1.0 mph 61% 0.00 in
19:39 81.7 °F 68.4 °F 30.31 in Calm   1.0 mph 64% 0.00 in
19:44 81.1 °F 67.8 °F 30.31 in Calm     64% 0.00 in
19:49 80.2 °F 68.4 °F 30.31 in Calm   1.0 mph 67% 0.00 in
19:59 77.4 °F 67.6 °F 30.31 in Calm     72% 0.00 in
20:04 76.3 °F 68.2 °F 30.32 in Calm     76% 0.00 in
20:09 75.4 °F 67.3 °F 30.32 in Calm     76% 0.00 in
20:14 74.8 °F 67.8 °F 30.32 in Calm     79% 0.00 in
20:19 74.1 °F 67.6 °F 30.32 in Calm     80% 0.00 in
20:29 73.2 °F 67.5 °F 30.32 in Calm     82% 0.00 in
20:39 72.3 °F 67.3 °F 30.32 in Calm     84% 0.00 in
20:49 71.4 °F 67.1 °F 30.32 in Calm     86% 0.00 in
20:55 71.1 °F 66.7 °F 30.33 in Calm     86% 0.00 in
21:00 70.5 °F 66.4 °F 30.33 in Calm     87% 0.00 in
21:05 70.3 °F 66.6 °F 30.33 in Calm   1.0 mph 88% 0.00 in
21:10 70.0 °F 66.2 °F 30.33 in Calm     88% 0.00 in
21:15 69.8 °F 66.4 °F 30.33 in Calm   1.0 mph 89% 0.00 in
21:25 69.1 °F 66.0 °F 30.34 in Calm     90% 0.00 in
21:30 68.7 °F 66.0 °F 30.34 in Calm     91% 0.00 in
21:35 68.5 °F 66.2 °F 30.34 in Calm     92% 0.00 in
21:40 68.4 °F 65.7 °F 30.34 in Calm     91% 0.00 in
21:45 67.8 °F 65.1 °F 30.34 in Calm     91% 0.00 in
21:50 67.6 °F 65.3 °F 30.35 in Calm     92% 0.00 in
22:00 67.3 °F 65.1 °F 30.35 in Calm     93% 0.00 in
22:10 66.7 °F 64.6 °F 30.36 in Calm     93% 0.00 in
22:15 66.6 °F 64.8 °F 30.36 in Calm     94% 0.00 in
22:20 66.6 °F 64.8 °F 30.36 in Calm     94% 0.00 in
22:25 66.4 °F 64.9 °F 30.37 in Calm     95% 0.00 in
22:30 66.0 °F 64.6 °F 30.37 in Calm     95% 0.00 in
22:35 66.0 °F 64.8 °F 30.37 in Calm     96% 0.00 in
22:41 65.8 °F 64.6 °F 30.37 in Calm     96% 0.00 in
22:46 65.7 °F 64.4 °F 30.37 in Calm     96% 0.00 in
22:51 65.7 °F 64.2 °F 30.38 in Calm     95% 0.00 in
22:56 65.7 °F 64.4 °F 30.38 in Calm     96% 0.00 in
23:11 64.9 °F 63.9 °F 30.38 in Calm     96% 0.00 in
23:16 64.8 °F 63.7 °F 30.39 in Calm     96% 0.00 in
23:21 64.8 °F 63.9 °F 30.39 in Calm     97% 0.00 in
23:26 64.8 °F 63.9 °F 30.39 in Calm     97% 0.00 in
23:31 64.8 °F 63.9 °F 30.39 in Calm     97% 0.00 in
23:41 64.6 °F 63.7 °F 30.39 in Calm     97% 0.00 in
WheeWeather.com
Compliments of Weather Underground - 2 mb